createdAt,value
2022-08-22T00:00:19.009Z,47.79
2022-08-22T00:02:45.054Z,48.97
2022-08-22T00:05:32.319Z,48.18
2022-08-22T00:11:07.957Z,48.86
2022-08-22T00:16:28.962Z,48.97
2022-08-22T00:21:35.540Z,48.53
2022-08-22T00:26:53.966Z,48.71
2022-08-22T00:32:10.543Z,48.68
2022-08-22T00:37:17.169Z,49.56
2022-08-22T00:42:29.111Z,49.20
2022-08-22T00:47:55.531Z,49.05
2022-08-22T00:53:00.059Z,49.12
2022-08-22T00:58:35.347Z,48.88
2022-08-22T01:03:48.595Z,49.92
2022-08-22T01:08:59.015Z,49.11
2022-08-22T01:14:37.995Z,49.89
2022-08-22T01:19:53.007Z,49.82
2022-08-22T01:25:15.899Z,49.67
2022-08-22T01:30:38.942Z,49.65
2022-08-22T01:35:49.402Z,49.63
2022-08-22T01:41:12.186Z,49.89
2022-08-22T01:46:20.692Z,49.74
2022-08-22T01:52:00.641Z,49.99
2022-08-22T01:57:05.271Z,50.06
2022-08-22T02:02:32.057Z,49.96
2022-08-22T02:07:48.771Z,50.50
2022-08-22T02:13:17.841Z,49.84
2022-08-22T02:18:33.200Z,49.78
2022-08-22T02:23:57.260Z,49.90
2022-08-22T02:29:22.506Z,50.13
2022-08-22T02:34:26.798Z,50.29
2022-08-22T02:40:02.129Z,50.39
2022-08-22T02:45:07.039Z,49.55
2022-08-22T02:50:18.485Z,49.73
2022-08-22T02:55:41.105Z,50.42
2022-08-22T03:00:52.298Z,51.10
2022-08-22T03:06:19.670Z,50.66
2022-08-22T03:11:26.557Z,51.02
2022-08-22T03:17:26.272Z,51.11
2022-08-22T03:22:43.625Z,50.43
2022-08-22T03:27:51.947Z,50.98
2022-08-22T03:33:17.011Z,50.40
2022-08-22T03:38:33.496Z,50.79
2022-08-22T03:44:05.702Z,50.15
2022-08-22T03:49:12.930Z,51.76
2022-08-22T03:54:35.844Z,51.61
2022-08-22T03:59:58.885Z,51.32
2022-08-22T04:05:05.046Z,50.88
2022-08-22T04:10:31.119Z,51.13
2022-08-22T04:16:00.884Z,50.74
2022-08-22T04:21:16.290Z,50.88
2022-08-22T04:26:33.502Z,50.62
2022-08-22T04:31:44.392Z,50.79
2022-08-22T04:36:50.477Z,51.00
2022-08-22T04:42:00.695Z,51.24
2022-08-22T04:47:35.174Z,51.26
2022-08-22T04:52:59.601Z,51.17
2022-08-22T04:58:26.627Z,51.41
2022-08-22T05:03:28.849Z,51.45
2022-08-22T05:08:31.895Z,51.44
2022-08-22T05:13:44.549Z,51.65
2022-08-22T05:18:48.860Z,51.33
2022-08-22T05:23:55.834Z,51.57
2022-08-22T05:29:00.330Z,51.24
2022-08-22T05:34:06.174Z,51.48
2022-08-22T05:39:17.593Z,51.64
2022-08-22T05:44:20.865Z,51.30
2022-08-22T05:49:23.511Z,51.38
2022-08-22T05:54:33.522Z,51.04
2022-08-22T05:59:38.438Z,51.20
2022-08-22T06:04:51.895Z,50.91
2022-08-22T06:10:13.798Z,51.16
2022-08-22T06:15:36.767Z,50.66
2022-08-22T06:20:56.336Z,51.02
2022-08-22T06:25:59.394Z,50.15
2022-08-22T06:31:00.942Z,50.67
2022-08-22T06:36:24.637Z,49.87
2022-08-22T06:41:28.298Z,49.59
2022-08-22T06:46:29.855Z,49.78
2022-08-22T06:51:32.474Z,48.84
2022-08-22T06:56:44.380Z,49.26
2022-08-22T07:01:52.905Z,48.95
2022-08-22T07:06:56.055Z,48.69
2022-08-22T07:11:59.398Z,48.40
2022-08-22T07:17:04.799Z,47.87
2022-08-22T07:22:17.444Z,48.00
2022-08-22T07:27:41.062Z,47.17
2022-08-22T07:33:18.977Z,47.32
2022-08-22T07:38:42.755Z,47.28
2022-08-22T07:43:57.603Z,47.58
2022-08-22T07:49:14.335Z,47.95
2022-08-22T07:54:22.737Z,48.02
2022-08-22T07:59:28.918Z,47.46
2022-08-22T08:04:33.476Z,48.11
2022-08-22T08:09:40.631Z,46.95
2022-08-22T08:14:44.160Z,47.94
2022-08-22T08:19:45.832Z,47.85
2022-08-22T08:24:47.408Z,47.74
2022-08-22T08:29:54.578Z,49.02
2022-08-22T08:34:56.256Z,48.18
2022-08-22T08:39:58.408Z,49.23
2022-08-22T08:45:23.683Z,47.97
2022-08-22T08:50:56.510Z,47.38
2022-08-22T08:56:10.922Z,46.97
2022-08-22T09:01:31.041Z,46.69
2022-08-22T09:06:56.745Z,45.66
2022-08-22T09:12:08.535Z,45.81
2022-08-22T09:17:29.161Z,45.83
2022-08-22T09:23:10.186Z,46.88
2022-08-22T09:28:14.571Z,45.39
2022-08-22T09:33:18.332Z,45.15
2022-08-22T09:38:47.814Z,44.94
2022-08-22T09:43:52.668Z,44.25
2022-08-22T09:49:25.804Z,44.13
2022-08-22T09:55:07.922Z,44.59
2022-08-22T10:00:22.407Z,44.65
2022-08-22T10:05:40.636Z,43.69
2022-08-22T10:11:06.617Z,43.65
2022-08-22T10:16:27.209Z,41.92
2022-08-22T10:21:37.950Z,41.88
2022-08-22T10:26:44.869Z,41.56
2022-08-22T10:32:21.117Z,43.05
2022-08-22T10:37:46.126Z,43.18
2022-08-22T10:43:10.849Z,43.78
2022-08-22T10:48:44.577Z,44.17
2022-08-22T10:53:53.490Z,44.55
2022-08-22T10:59:23.500Z,44.23
2022-08-22T11:04:40.119Z,43.14
2022-08-22T11:09:44.963Z,44.22
2022-08-22T11:14:57.090Z,42.81
2022-08-22T11:20:01.512Z,42.71
2022-08-22T11:25:35.663Z,41.68
2022-08-22T11:30:44.176Z,37.84
2022-08-22T11:36:11.708Z,39.26
2022-08-22T11:41:24.012Z,41.01
2022-08-22T11:46:49.096Z,40.79
2022-08-22T11:52:13.348Z,39.56
2022-08-22T11:57:17.744Z,39.59
2022-08-22T12:02:25.303Z,39.64
2022-08-22T12:07:31.566Z,39.53
2022-08-22T12:12:53.430Z,38.67
2022-08-22T12:18:21.147Z,38.77
2022-08-22T12:23:40.754Z,39.66
2022-08-22T12:28:59.137Z,39.48
2022-08-22T12:34:08.278Z,37.69
2022-08-22T12:39:17.019Z,37.01
2022-08-22T12:44:42.881Z,37.38
2022-08-22T12:50:09.147Z,38.80
2022-08-22T12:55:37.660Z,39.22
2022-08-22T13:00:43.863Z,39.38
2022-08-22T13:05:56.746Z,40.08
2022-08-22T13:11:10.033Z,40.16
2022-08-22T13:16:24.591Z,41.04
2022-08-22T13:21:31.477Z,40.59
2022-08-22T13:26:40.796Z,42.26
2022-08-22T13:31:45.563Z,41.88
2022-08-22T13:36:51.946Z,42.31
2022-08-22T13:42:00.187Z,41.12
2022-08-22T13:47:14.409Z,41.48
2022-08-22T13:52:29.206Z,40.84
2022-08-22T13:57:38.659Z,40.47
2022-08-22T14:03:00.375Z,42.50
2022-08-22T14:08:18.605Z,40.80
2022-08-22T14:13:45.050Z,41.96
2022-08-22T14:18:54.060Z,41.21
2022-08-22T14:24:13.022Z,40.91
2022-08-22T14:29:16.015Z,40.88
2022-08-22T14:34:17.543Z,41.91
2022-08-22T14:39:26.706Z,40.55
2022-08-22T14:44:29.648Z,41.39
2022-08-22T14:49:54.378Z,40.73
2022-08-22T14:55:09.741Z,42.09
2022-08-22T15:00:12.540Z,42.23
2022-08-22T15:05:19.563Z,45.38
2022-08-22T15:10:22.656Z,47.54
2022-08-22T15:15:32.842Z,44.75
2022-08-22T15:21:10.293Z,44.25
2022-08-22T15:26:22.786Z,44.40
2022-08-22T15:31:24.315Z,45.68
2022-08-22T15:36:26.050Z,44.71
2022-08-22T15:41:36.784Z,47.66
2022-08-22T15:46:41.308Z,47.49
2022-08-22T15:51:55.371Z,47.54
2022-08-22T15:57:24.803Z,45.50
2022-08-22T16:02:35.441Z,45.14
2022-08-22T16:07:50.986Z,45.60
2022-08-22T16:13:26.560Z,45.83
2022-08-22T16:18:33.823Z,45.71
2022-08-22T16:23:50.964Z,45.76
2022-08-22T16:29:37.625Z,44.64
2022-08-22T16:34:45.530Z,46.04
2022-08-22T16:40:04.074Z,45.38
2022-08-22T16:45:08.327Z,47.56
2022-08-22T16:50:15.624Z,45.41
2022-08-22T16:55:29.318Z,46.15
2022-08-22T17:00:30.727Z,48.26
2022-08-22T17:05:41.374Z,48.72
2022-08-22T17:10:53.181Z,48.82
2022-08-22T17:16:04.266Z,51.25
2022-08-22T17:21:36.341Z,51.99
2022-08-22T17:26:45.706Z,51.60
2022-08-22T17:31:59.698Z,52.04
2022-08-22T17:37:06.712Z,51.63
2022-08-22T17:42:45.283Z,52.76
2022-08-22T17:47:52.577Z,52.36
2022-08-22T17:53:00.890Z,54.43
2022-08-22T17:58:33.585Z,52.93
2022-08-22T18:03:38.886Z,53.15
2022-08-22T18:14:25.728Z,51.86
2022-08-22T18:19:43.635Z,50.91
2022-08-22T18:25:08.599Z,51.56
2022-08-22T18:30:20.559Z,52.00
2022-08-22T18:36:00.830Z,53.84
2022-08-22T18:41:06.966Z,55.56
2022-08-22T18:46:29.732Z,55.17
2022-08-22T18:51:38.297Z,53.73
2022-08-22T18:57:01.849Z,55.57
2022-08-22T19:02:40.094Z,55.61
2022-08-22T19:07:59.918Z,56.96
2022-08-22T19:13:07.206Z,56.60
2022-08-22T19:18:18.107Z,56.52
2022-08-22T19:23:40.460Z,57.79
2022-08-22T19:28:41.999Z,58.88
2022-08-22T19:33:47.596Z,58.77
2022-08-22T19:39:09.144Z,57.66
2022-08-22T19:44:19.545Z,57.29
2022-08-22T19:49:28.416Z,57.11
2022-08-22T19:54:30.286Z,55.79
2022-08-22T19:59:46.762Z,56.10
2022-08-22T20:05:04.771Z,56.82
2022-08-22T20:10:20.338Z,56.95
2022-08-22T20:15:23.575Z,56.77
2022-08-22T20:20:35.560Z,56.28
2022-08-22T20:25:44.221Z,55.99
2022-08-22T20:30:46.020Z,54.85
2022-08-22T20:35:51.428Z,55.16
2022-08-22T20:41:36.946Z,54.50
2022-08-22T20:46:56.285Z,54.27
2022-08-22T20:51:59.891Z,53.99
2022-08-22T20:57:03.457Z,53.39
2022-08-22T21:02:10.112Z,53.34
2022-08-22T21:07:11.682Z,53.49
2022-08-22T21:12:13.254Z,53.48
2022-08-22T21:17:27.301Z,53.55
2022-08-22T21:22:31.675Z,53.01
2022-08-22T21:27:33.786Z,53.27
2022-08-22T21:32:46.662Z,53.17
2022-08-22T21:37:48.170Z,53.07
2022-08-22T21:43:11.433Z,52.98
2022-08-22T21:48:58.669Z,52.68
2022-08-22T21:54:24.776Z,52.43
2022-08-22T21:59:50.789Z,52.28
2022-08-22T22:04:53.950Z,51.92
2022-08-22T22:09:55.590Z,52.27
2022-08-22T22:14:57.118Z,51.87
2022-08-22T22:19:58.638Z,51.87
2022-08-22T22:25:00.161Z,52.01
2022-08-22T22:30:01.810Z,52.44
2022-08-22T22:35:03.317Z,52.58
2022-08-22T22:40:07.218Z,52.49
2022-08-22T22:45:10.725Z,52.85
2022-08-22T22:50:12.247Z,53.01
2022-08-22T22:55:24.453Z,53.12
2022-08-22T23:00:34.021Z,53.47
2022-08-22T23:05:35.602Z,53.09
2022-08-22T23:10:37.182Z,53.29
2022-08-22T23:15:38.740Z,53.71
2022-08-22T23:20:40.263Z,53.83
2022-08-22T23:25:41.787Z,53.85
2022-08-22T23:30:43.351Z,54.71
2022-08-22T23:35:44.995Z,53.98
2022-08-22T23:40:46.503Z,54.15
2022-08-22T23:45:48.013Z,54.36
2022-08-22T23:50:49.532Z,54.83
2022-08-22T23:55:51.088Z,54.46
